Boxboro, Massachusetts
Current Conditions -  °F | °C
As of 8:43 PM on Monday 22 Dec 2014 (Local Time) from KBED Reporting Station
Haze Haze  
Wind Chill: 32°   Ceiling: 300
Heat Index: 37°   Visibility: 1.7mi
Dew Point: 36°   Wind: 6mph
Humidity: 96%   Direction: 30°NNE
Pressure: 30.31"   Gusts: NA
Location:  42.4884°N, 71.5177°W
Report Text: KBED 230143Z 03005KT 1 3/4SM BR OVC003 03/02 A3031 RMK AO2 RAB07E43 P0000 T00280022
Loading
Personal Weather Stations






























Interactive Weather Map New forecast layout! Learn more

10-Day Weather Forecast

Advertisements
Track Severe Weather on mobile